Mabel Creek, Australia

2:03 AM ACST on September 24, 2017 (GMT +0930)
Coober Pedy | | Change Station

Elev 738 ft 29.04 °S, 134.72 °E | Updated 33 minutes ago

Clear
Clear
64 °F
Feels Like 64 °F
N
10
Wind Variable Wind from SSW

Today
High -- | Low -- °F
--% Chance of Precip.
Yesterday
High -- | Low -- °F
Precip. -- in
Pressure 29.77 in
Visibility 6.2 miles
Clouds
Dew Point 28 °F
Humidity 26%
Rainfall 0.00 in
Snow Depth Not available.
6:20 AM 6:29 PM
Waxing Crescent, 12% visible
METAR YCBP 231600Z AUTO 21009KT 9999 // NCD 18/M02 Q1008
Pressure 29.77 in
Visibility 6.2 miles
Clouds
Dew Point 28 °F
Humidity 26%
Rainfall 0.00 in
Snow Depth Not available.
6:20 AM 6:29 PM
Waxing Crescent, 12% visible
METAR YCBP 231600Z AUTO 21009KT 9999 // NCD 18/M02 Q1008

Get Severe Weather Alerts

Thanks for signing up!

Be on the lookout for a verification email in your inbox.

You'll start receiving the daily forecast at 6 AM.

×

10-Day Weather Forecast

×

Almanac

Astronomy

Sep. 24, 2017 Rise Set
Actual Time
Civil Twilight
Nautical Twilight
Astronomical Twilight
Moon
Length of Visible Light
Length of Day
Tomorrow will be .
, % of the Moon is Illuminated

Today's Extremes

Country Highs Country Lows

Community

WunderPhotos

Category 6

Welcome to Category 6. This is the collective home for Weather Underground's featured writeups by Dr. Jeff Masters (right), Bob Henson (left), Chris Burt, and other regular contributors.

Nearby

Air Quality

  Air Quality AQ Index Pollutant
Not available.

Snow Depth

Station Depth Elevation

Earthquake Activity

City Distance Mag. Time & Date
Minimum magnitude displayed is 2.5.

Coastal Water Temperatures

Place Temperature

Stations

Nearby Weather Stations

Station Location Temp. Windchill Dew Point Humidity Wind Precip. Elev Updated Type